MSC Alexa — 3FPP6 — position and weather

sailwx.info

Track history (hours):
 
Tides and Currents Weather Stations Pressure Air Temp Water Temp Dewpoint Dewpoint Depression Visibility Wind Speed Wind Dir Waves Ship Positions

MSC Alexa

Last reported at 2014-Oct-20 01:33 UTC. Time now 2014-Oct-25 07:47 UTC.
Position S 23°09' W 040°53'.

Length 243 m; draft 10.6 m.

Type: Ship (hazmat cat D). MMSI: 356904000.

Date/timePositionNaut miles runAvg speedWind from/ knotsBaromVisibWave heightAir tempDewpointWater temp
2014-Oct-20 01:33S 23°09' W 040°53'1515.3
2014-Oct-20 00:33S 23°11' W 041°10'  
2014-Oct-14 22:24S 24°09' W 046°25'1213.5
2014-Oct-14 21:33S 23°60' W 046°18'5 1.6
2014-Oct-14 18:33S 23°55' W 046°21'0 0.0
2014-Oct-14 17:32S 23°55' W 046°21'0 0.0
2014-Oct-14 16:23S 23°55' W 046°21'0 0.0
2014-Oct-14 15:28S 23°55' W 046°21'0 0.0
2014-Oct-14 14:25S 23°55' W 046°21'0 0.0
2014-Oct-14 13:30S 23°55' W 046°21'0 0.0
2014-Oct-14 08:07S 23°55' W 046°21'0 0.0
2014-Oct-14 07:31S 23°55' W 046°21'0 0.0
2014-Oct-14 05:18S 23°55' W 046°21'0 0.0
2014-Oct-14 04:29S 23°55' W 046°21'0 0.0
2014-Oct-14 02:32S 23°55' W 046°21'0 0.0
2014-Oct-13 20:32S 23°55' W 046°21'0 0.0
2014-Oct-13 19:32S 23°55' W 046°21'0 0.0
2014-Oct-13 18:19S 23°55' W 046°21'0 0.0
2014-Oct-13 17:25S 23°55' W 046°21'0 0.0
2014-Oct-13 15:18S 23°55' W 046°21'0 0.0
2014-Oct-13 12:04S 23°55' W 046°21'0 0.0
2014-Oct-13 11:25S 23°55' W 046°21'2 2.7
2014-Oct-13 10:33S 23°56' W 046°19'6 6.3
2014-Oct-13 09:33S 24°02' W 046°21'8 7.7
2014-Oct-13 08:33S 24°10' W 046°20'1 0.1
2014-Oct-12 13:29S 24°11' W 046°19'0 0.1
2014-Oct-12 12:31S 24°11' W 046°19'0 0.0
2014-Oct-12 11:28S 24°11' W 046°19'0 0.0
2014-Oct-12 10:33S 24°11' W 046°19'0 0.0
2014-Oct-12 09:30S 24°11' W 046°19'0 0.0
2014-Oct-12 08:33S 24°11' W 046°19'0 0.0
2014-Oct-12 07:29S 24°11' W 046°19'0 0.0
2014-Oct-12 06:29S 24°11' W 046°19'0 0.0
2014-Oct-12 04:28S 24°11' W 046°19'0 0.0
2014-Oct-12 03:33S 24°11' W 046°19'0 0.0
2014-Oct-12 02:33S 24°11' W 046°19'0 0.0
2014-Oct-12 01:26S 24°11' W 046°19'0 0.0
2014-Oct-12 00:32S 24°11' W 046°19'0 0.0
2014-Oct-11 23:26S 24°11' W 046°19'0 0.0
2014-Oct-11 22:16S 24°11' W 046°19'0 0.0
2014-Oct-11 21:16S 24°11' W 046°19'0 0.0
2014-Oct-11 20:33S 24°11' W 046°19'0 0.0
2014-Oct-11 19:33S 24°11' W 046°19'0 0.0
2014-Oct-11 18:29S 24°11' W 046°19'0 0.0
2014-Oct-11 17:32S 24°11' W 046°19'0 0.0
2014-Oct-11 16:32S 24°11' W 046°19'0 0.0
2014-Oct-11 15:28S 24°11' W 046°19'0 0.0
2014-Oct-11 14:31S 24°11' W 046°19'0 0.0
2014-Oct-11 13:24S 24°11' W 046°19'0 0.0
2014-Oct-11 12:33S 24°11' W 046°19'0 0.0
2014-Oct-11 11:32S 24°11' W 046°19'0 0.0
2014-Oct-11 10:33S 24°11' W 046°19'0 0.0
2014-Oct-11 09:33S 24°11' W 046°19'0 0.1
2014-Oct-11 08:33S 24°11' W 046°19'0 0.1
2014-Oct-11 07:07S 24°11' W 046°19'0 0.1
2014-Oct-11 06:05S 24°11' W 046°19'0 0.1
2014-Oct-11 05:10S 24°11' W 046°19'0 0.0
2014-Oct-11 04:11S 24°11' W 046°19'0 0.0
2014-Oct-11 03:30S 24°11' W 046°19'0 0.0
2014-Oct-11 00:32S 24°11' W 046°19'0 0.0
2014-Oct-10 20:28S 24°11' W 046°19'2 1.0
2014-Oct-10 18:33S 24°13' W 046°19'  
Track history (hours):
 
Tides and Currents Weather Stations Pressure Air Temp Water Temp Dewpoint Dewpoint Depression Visibility Wind Speed Wind Dir Waves Ship Positions

MSC Alexa

Last reported at 2014-Oct-20 01:33 UTC. Time now 2014-Oct-25 07:47 UTC.
Position S 23°09' W 040°53'.

Length 243 m; draft 10.6 m.

Type: Ship (hazmat cat D). MMSI: 356904000.

Date/timePositionNaut miles runAvg speedWind from/ knotsBaromVisibWave heightAir tempDewpointWater temp
2014-Oct-20 01:33S 23°09' W 040°53'1515.3
2014-Oct-20 00:33S 23°11' W 041°10'  
2014-Oct-14 22:24S 24°09' W 046°25'1213.5
2014-Oct-14 21:33S 23°60' W 046°18'5 1.6
2014-Oct-14 18:33S 23°55' W 046°21'0 0.0
2014-Oct-14 17:32S 23°55' W 046°21'0 0.0
2014-Oct-14 16:23S 23°55' W 046°21'0 0.0
2014-Oct-14 15:28S 23°55' W 046°21'0 0.0
2014-Oct-14 14:25S 23°55' W 046°21'0 0.0
2014-Oct-14 13:30S 23°55' W 046°21'0 0.0
2014-Oct-14 08:07S 23°55' W 046°21'0 0.0
2014-Oct-14 07:31S 23°55' W 046°21'0 0.0
2014-Oct-14 05:18S 23°55' W 046°21'0 0.0
2014-Oct-14 04:29S 23°55' W 046°21'0 0.0
2014-Oct-14 02:32S 23°55' W 046°21'0 0.0
2014-Oct-13 20:32S 23°55' W 046°21'0 0.0
2014-Oct-13 19:32S 23°55' W 046°21'0 0.0
2014-Oct-13 18:19S 23°55' W 046°21'0 0.0
2014-Oct-13 17:25S 23°55' W 046°21'0 0.0
2014-Oct-13 15:18S 23°55' W 046°21'0 0.0
2014-Oct-13 12:04S 23°55' W 046°21'0 0.0
2014-Oct-13 11:25S 23°55' W 046°21'2 2.7
2014-Oct-13 10:33S 23°56' W 046°19'6 6.3
2014-Oct-13 09:33S 24°02' W 046°21'8 7.7
2014-Oct-13 08:33S 24°10' W 046°20'1 0.1
2014-Oct-12 13:29S 24°11' W 046°19'0 0.1
2014-Oct-12 12:31S 24°11' W 046°19'0 0.0
2014-Oct-12 11:28S 24°11' W 046°19'0 0.0
2014-Oct-12 10:33S 24°11' W 046°19'0 0.0
2014-Oct-12 09:30S 24°11' W 046°19'0 0.0
2014-Oct-12 08:33S 24°11' W 046°19'0 0.0
2014-Oct-12 07:29S 24°11' W 046°19'0 0.0
2014-Oct-12 06:29S 24°11' W 046°19'0 0.0
2014-Oct-12 04:28S 24°11' W 046°19'0 0.0
2014-Oct-12 03:33S 24°11' W 046°19'0 0.0
2014-Oct-12 02:33S 24°11' W 046°19'0 0.0
2014-Oct-12 01:26S 24°11' W 046°19'0 0.0
2014-Oct-12 00:32S 24°11' W 046°19'0 0.0
2014-Oct-11 23:26S 24°11' W 046°19'0 0.0
2014-Oct-11 22:16S 24°11' W 046°19'0 0.0
2014-Oct-11 21:16S 24°11' W 046°19'0 0.0
2014-Oct-11 20:33S 24°11' W 046°19'0 0.0
2014-Oct-11 19:33S 24°11' W 046°19'0 0.0
2014-Oct-11 18:29S 24°11' W 046°19'0 0.0
2014-Oct-11 17:32S 24°11' W 046°19'0 0.0
2014-Oct-11 16:32S 24°11' W 046°19'0 0.0
2014-Oct-11 15:28S 24°11' W 046°19'0 0.0
2014-Oct-11 14:31S 24°11' W 046°19'0 0.0
2014-Oct-11 13:24S 24°11' W 046°19'0 0.0
2014-Oct-11 12:33S 24°11' W 046°19'0 0.0
2014-Oct-11 11:32S 24°11' W 046°19'0 0.0
2014-Oct-11 10:33S 24°11' W 046°19'0 0.0
2014-Oct-11 09:33S 24°11' W 046°19'0 0.1
2014-Oct-11 08:33S 24°11' W 046°19'0 0.1
2014-Oct-11 07:07S 24°11' W 046°19'0 0.1
2014-Oct-11 06:05S 24°11' W 046°19'0 0.1
2014-Oct-11 05:10S 24°11' W 046°19'0 0.0
2014-Oct-11 04:11S 24°11' W 046°19'0 0.0
2014-Oct-11 03:30S 24°11' W 046°19'0 0.0
2014-Oct-11 00:32S 24°11' W 046°19'0 0.0
2014-Oct-10 20:28S 24°11' W 046°19'2 1.0
2014-Oct-10 18:33S 24°13' W 046°19'  

Dump ship's entire track history